createdAt,value
2023-02-16T00:00:38.999Z,823.96
2023-02-16T00:01:39.010Z,823.95
2023-02-16T00:02:39.105Z,823.96
2023-02-16T00:03:39.252Z,823.96
2023-02-16T00:04:39.030Z,823.93
2023-02-16T00:05:39.042Z,823.95
2023-02-16T00:06:39.052Z,823.94
2023-02-16T00:07:39.057Z,823.88
2023-02-16T00:08:39.062Z,823.86
2023-02-16T00:09:39.073Z,823.86
2023-02-16T00:10:39.095Z,823.87
2023-02-16T00:11:39.094Z,823.90
2023-02-16T00:12:39.094Z,823.90
2023-02-16T00:13:39.103Z,823.92
2023-02-16T00:14:39.110Z,823.92
2023-02-16T00:15:39.184Z,823.93
2023-02-16T00:16:39.123Z,823.94
2023-02-16T00:17:39.153Z,823.89
2023-02-16T00:18:39.139Z,823.91
2023-02-16T00:19:39.188Z,823.89
2023-02-16T00:20:39.163Z,823.90
2023-02-16T00:21:39.162Z,823.91
2023-02-16T00:22:39.179Z,823.91
2023-02-16T00:23:39.179Z,823.90
2023-02-16T00:24:39.193Z,823.91
2023-02-16T00:25:39.194Z,823.90
2023-02-16T00:26:39.209Z,823.92
2023-02-16T00:27:39.217Z,823.94
2023-02-16T00:28:39.228Z,823.93
2023-02-16T00:29:39.235Z,823.91
2023-02-16T00:30:39.239Z,823.93
2023-02-16T00:31:39.488Z,823.91
2023-02-16T00:32:39.268Z,823.94
2023-02-16T00:33:39.261Z,823.85
2023-02-16T00:34:39.273Z,823.92
2023-02-16T00:35:39.303Z,823.89
2023-02-16T00:36:39.289Z,823.86
2023-02-16T00:37:39.294Z,823.88
2023-02-16T00:38:39.310Z,823.88
2023-02-16T00:39:39.329Z,823.86
2023-02-16T00:40:39.324Z,823.86
2023-02-16T00:41:39.355Z,823.85
2023-02-16T00:42:39.353Z,823.87
2023-02-16T00:43:39.354Z,823.84
2023-02-16T00:44:39.358Z,823.79
2023-02-16T00:45:39.356Z,823.80
2023-02-16T00:46:39.370Z,823.81
2023-02-16T00:47:39.373Z,823.83
2023-02-16T00:48:39.400Z,823.83
2023-02-16T00:49:39.388Z,823.89
2023-02-16T00:50:39.401Z,823.83
2023-02-16T00:51:39.533Z,823.85
2023-02-16T00:52:39.419Z,823.87
2023-02-16T00:53:39.430Z,823.89
2023-02-16T00:54:39.438Z,823.84
2023-02-16T00:55:39.439Z,823.87
2023-02-16T00:56:39.455Z,823.83
2023-02-16T00:57:39.452Z,823.85
2023-02-16T00:58:39.464Z,823.83
2023-02-16T00:59:39.473Z,823.86
2023-02-16T01:00:39.481Z,823.85
2023-02-16T01:01:39.553Z,823.85
2023-02-16T01:02:39.497Z,823.84
2023-02-16T01:03:39.500Z,823.87
2023-02-16T01:04:39.636Z,823.83
2023-02-16T01:05:39.516Z,823.85
2023-02-16T01:06:39.525Z,823.87
2023-02-16T01:07:39.554Z,823.82
2023-02-16T01:08:39.541Z,823.81
2023-02-16T01:09:39.551Z,823.78
2023-02-16T01:10:39.556Z,823.73
2023-02-16T01:11:39.565Z,823.74
2023-02-16T01:12:39.570Z,823.72
2023-02-16T01:13:39.574Z,823.71
2023-02-16T01:14:39.585Z,823.72
2023-02-16T01:15:39.629Z,823.68
2023-02-16T01:16:39.603Z,823.70
2023-02-16T01:17:39.612Z,823.70
2023-02-16T01:18:39.621Z,823.70
2023-02-16T01:19:39.622Z,823.66
2023-02-16T01:20:39.644Z,823.65
2023-02-16T01:21:39.635Z,823.68
2023-02-16T01:22:39.654Z,823.65
2023-02-16T01:23:39.674Z,823.66
2023-02-16T01:24:39.662Z,823.67
2023-02-16T01:25:39.669Z,823.69
2023-02-16T01:26:39.679Z,823.70
2023-02-16T01:27:39.701Z,823.66
2023-02-16T01:28:39.720Z,823.67
2023-02-16T01:29:39.698Z,823.67
2023-02-16T01:30:39.714Z,823.67
2023-02-16T01:31:39.910Z,823.61
2023-02-16T01:32:39.734Z,823.60
2023-02-16T01:33:39.830Z,823.65
2023-02-16T01:34:39.741Z,823.60
2023-02-16T01:35:39.749Z,823.56
2023-02-16T01:36:39.765Z,823.59
2023-02-16T01:37:39.763Z,823.54
2023-02-16T01:38:39.790Z,823.57
2023-02-16T01:39:39.795Z,823.55
2023-02-16T01:40:39.801Z,823.57
2023-02-16T01:41:39.796Z,823.55
2023-02-16T01:42:39.805Z,823.58
2023-02-16T01:43:39.814Z,823.52
2023-02-16T01:44:39.821Z,823.52
2023-02-16T01:45:39.823Z,823.49
2023-02-16T01:46:39.916Z,823.48
2023-02-16T01:47:39.840Z,823.49
2023-02-16T01:48:39.856Z,823.49
2023-02-16T01:49:39.865Z,823.54
2023-02-16T01:50:39.882Z,823.55
2023-02-16T01:51:39.871Z,823.53
2023-02-16T01:52:39.883Z,823.53
2023-02-16T01:53:39.886Z,823.56
2023-02-16T01:54:39.902Z,823.52
2023-02-16T01:55:39.938Z,823.53
2023-02-16T01:56:39.917Z,823.52
2023-02-16T01:57:39.921Z,823.52
2023-02-16T01:58:39.931Z,823.47
2023-02-16T01:59:39.938Z,823.47
2023-02-16T02:00:39.946Z,823.49
2023-02-16T02:01:39.977Z,823.42
2023-02-16T02:02:40.067Z,823.41
2023-02-16T02:03:39.963Z,823.41
2023-02-16T02:04:39.985Z,823.37
2023-02-16T02:05:40.085Z,823.36
2023-02-16T02:06:39.997Z,823.36
2023-02-16T02:07:40.002Z,823.36
2023-02-16T02:08:40.013Z,823.35
2023-02-16T02:09:40.020Z,823.36
2023-02-16T02:10:40.028Z,823.37
2023-02-16T02:11:40.049Z,823.35
2023-02-16T02:12:40.049Z,823.35
2023-02-16T02:13:40.041Z,823.29
2023-02-16T02:14:40.077Z,823.29
2023-02-16T02:15:40.087Z,823.27
2023-02-16T02:16:40.079Z,823.24
2023-02-16T02:17:40.074Z,823.25
2023-02-16T02:18:40.095Z,823.27
2023-02-16T02:19:40.088Z,823.22
2023-02-16T02:20:40.104Z,823.24
2023-02-16T02:21:40.107Z,823.23
2023-02-16T02:22:40.114Z,823.21
2023-02-16T02:23:40.121Z,823.25
2023-02-16T02:24:40.130Z,823.18
2023-02-16T02:25:40.131Z,823.18
2023-02-16T02:26:40.147Z,823.21
2023-02-16T02:27:40.175Z,823.16
2023-02-16T02:28:40.163Z,823.13
2023-02-16T02:29:40.166Z,823.12
2023-02-16T02:30:40.183Z,823.12
2023-02-16T02:31:40.336Z,823.09
2023-02-16T02:32:40.194Z,823.11
2023-02-16T02:33:40.203Z,823.11
2023-02-16T02:34:40.212Z,823.09
2023-02-16T02:35:40.219Z,823.05
2023-02-16T02:36:40.239Z,823.07
2023-02-16T02:37:40.232Z,823.08
2023-02-16T02:38:40.242Z,823.05
2023-02-16T02:39:40.236Z,823.04
2023-02-16T02:40:40.247Z,823.04
2023-02-16T02:41:40.252Z,823.05
2023-02-16T02:42:40.316Z,823.05
2023-02-16T02:43:40.297Z,823.06
2023-02-16T02:44:40.281Z,823.03
2023-02-16T02:45:40.283Z,823.04
2023-02-16T02:46:40.386Z,823.03
2023-02-16T02:47:40.303Z,823.04
2023-02-16T02:48:40.316Z,823.06
2023-02-16T02:49:40.311Z,823.01
2023-02-16T02:50:40.328Z,823.06
2023-02-16T02:51:40.426Z,823.03
2023-02-16T02:52:40.336Z,823.04
2023-02-16T02:53:40.341Z,823.04
2023-02-16T02:54:40.356Z,823.03
2023-02-16T02:55:40.361Z,823.08
2023-02-16T02:56:40.369Z,823.03
2023-02-16T02:57:40.406Z,823.05
2023-02-16T02:58:40.384Z,823.02
2023-02-16T02:59:40.405Z,823.05
2023-02-16T03:00:40.461Z,823.02
2023-02-16T03:01:40.590Z,823.00
2023-02-16T03:02:40.432Z,823.01
2023-02-16T03:03:40.414Z,822.99
2023-02-16T03:04:40.426Z,822.98
2023-02-16T03:05:40.431Z,823.01
2023-02-16T03:06:40.441Z,822.97
2023-02-16T03:07:40.445Z,822.99
2023-02-16T03:08:40.459Z,822.98
2023-02-16T03:09:40.462Z,823.00
2023-02-16T03:10:40.472Z,823.01
2023-02-16T03:11:40.480Z,822.97
2023-02-16T03:12:40.492Z,822.96
2023-02-16T03:13:40.489Z,822.96
2023-02-16T03:14:40.506Z,822.96
2023-02-16T03:15:40.524Z,822.97
2023-02-16T03:16:40.634Z,822.96
2023-02-16T03:17:40.518Z,822.92
2023-02-16T03:18:40.531Z,822.98
2023-02-16T03:19:40.544Z,822.99
2023-02-16T03:20:40.547Z,822.96
2023-02-16T03:21:40.547Z,822.99
2023-02-16T03:22:40.556Z,822.98
2023-02-16T03:23:40.563Z,823.00
2023-02-16T03:24:40.572Z,823.05
2023-02-16T03:25:40.574Z,823.01
2023-02-16T03:26:40.589Z,823.00
2023-02-16T03:27:40.591Z,823.01
2023-02-16T03:28:40.623Z,823.05
2023-02-16T03:29:40.605Z,823.02
2023-02-16T03:30:40.764Z,822.98
2023-02-16T03:31:40.808Z,823.02
2023-02-16T03:32:40.632Z,823.05
2023-02-16T03:33:40.636Z,823.01
2023-02-16T03:34:40.646Z,822.99
2023-02-16T03:35:40.649Z,823.03
2023-02-16T03:36:40.660Z,822.99
2023-02-16T03:37:40.669Z,823.01
2023-02-16T03:38:40.674Z,823.00
2023-02-16T03:39:40.675Z,823.03
2023-02-16T03:40:40.690Z,822.98
2023-02-16T03:41:40.695Z,823.01
2023-02-16T03:42:40.698Z,823.01
2023-02-16T03:43:40.716Z,822.99
2023-02-16T03:44:40.717Z,823.01
2023-02-16T03:45:40.771Z,823.01
2023-02-16T03:46:40.728Z,822.97
2023-02-16T03:47:40.825Z,823.03
2023-02-16T03:48:40.755Z,823.00
2023-02-16T03:49:40.746Z,823.04
2023-02-16T03:50:40.756Z,823.04
2023-02-16T03:51:40.761Z,823.04
2023-02-16T03:52:40.772Z,823.04
2023-02-16T03:53:40.778Z,823.02
2023-02-16T03:54:40.788Z,823.01
2023-02-16T03:55:40.795Z,823.01
2023-02-16T03:56:40.805Z,822.99
2023-02-16T03:57:40.805Z,823.03
2023-02-16T03:58:40.828Z,822.99
2023-02-16T03:59:40.818Z,823.01
2023-02-16T04:00:40.829Z,822.94
2023-02-16T04:01:40.837Z,823.00
2023-02-16T04:02:40.845Z,823.01
2023-02-16T04:03:40.874Z,823.00
2023-02-16T04:04:40.965Z,822.99
2023-02-16T04:05:40.872Z,823.00
2023-02-16T04:06:40.872Z,823.00
2023-02-16T04:07:40.878Z,823.04
2023-02-16T04:08:40.887Z,823.00
2023-02-16T04:09:40.891Z,823.00
2023-02-16T04:10:40.901Z,823.04
2023-02-16T04:11:40.906Z,823.03
2023-02-16T04:12:40.917Z,823.05
2023-02-16T04:13:40.921Z,823.07
2023-02-16T04:14:43.294Z,823.08
2023-02-16T04:15:41.034Z,823.05
2023-02-16T04:16:41.037Z,823.09
2023-02-16T04:17:40.952Z,823.05
2023-02-16T04:18:40.957Z,823.04
2023-02-16T04:19:40.979Z,823.05
2023-02-16T04:20:40.972Z,823.06
2023-02-16T04:21:40.977Z,823.10
2023-02-16T04:22:40.990Z,823.07
2023-02-16T04:23:40.987Z,823.06
2023-02-16T04:24:40.997Z,823.10
2023-02-16T04:25:41.018Z,823.08
2023-02-16T04:26:41.012Z,823.12
2023-02-16T04:27:41.022Z,823.08
2023-02-16T04:28:41.026Z,823.10
2023-02-16T04:29:41.028Z,823.09
2023-02-16T04:30:41.201Z,823.06
2023-02-16T04:31:41.220Z,823.10
2023-02-16T04:32:41.054Z,823.07
2023-02-16T04:33:41.058Z,823.04
2023-02-16T04:34:41.060Z,823.04
2023-02-16T04:35:41.105Z,823.04
2023-02-16T04:36:41.077Z,823.07
2023-02-16T04:37:41.091Z,823.06
2023-02-16T04:38:41.109Z,823.07
2023-02-16T04:39:41.129Z,823.06
2023-02-16T04:40:41.110Z,823.06
2023-02-16T04:41:41.110Z,823.10
2023-02-16T04:42:41.115Z,823.07
2023-02-16T04:43:41.123Z,823.09
2023-02-16T04:44:41.131Z,823.11
2023-02-16T04:45:41.336Z,823.10
2023-02-16T04:46:41.142Z,823.13
2023-02-16T04:47:41.155Z,823.14
2023-02-16T04:48:41.157Z,823.09
2023-02-16T04:49:41.188Z,823.09
2023-02-16T04:50:41.176Z,823.12
2023-02-16T04:51:41.212Z,823.12
2023-02-16T04:52:41.181Z,823.13
2023-02-16T04:53:41.195Z,823.10
2023-02-16T04:54:41.206Z,823.10
2023-02-16T04:55:41.206Z,823.13
2023-02-16T04:56:41.211Z,823.12
2023-02-16T04:57:41.230Z,823.12
2023-02-16T04:58:41.225Z,823.11
2023-02-16T04:59:41.240Z,823.14
2023-02-16T05:00:41.246Z,823.16
2023-02-16T05:01:41.337Z,823.11
2023-02-16T05:02:41.251Z,823.13
2023-02-16T05:03:41.262Z,823.12
2023-02-16T05:04:41.366Z,823.09
2023-02-16T05:05:41.274Z,823.11
2023-02-16T05:06:41.284Z,823.12
2023-02-16T05:07:41.315Z,823.15
2023-02-16T05:08:41.301Z,823.13
2023-02-16T05:09:41.303Z,823.12
2023-02-16T05:10:41.309Z,823.14
2023-02-16T05:11:41.319Z,823.15
2023-02-16T05:12:41.321Z,823.14
2023-02-16T05:13:42.710Z,823.14
2023-02-16T05:14:41.331Z,823.13
2023-02-16T05:15:41.413Z,823.11
2023-02-16T05:16:41.350Z,823.16
2023-02-16T05:17:41.360Z,823.16
2023-02-16T05:18:41.363Z,823.16
2023-02-16T05:19:41.377Z,823.18
2023-02-16T05:20:41.385Z,823.15
2023-02-16T05:21:41.395Z,823.15
2023-02-16T05:22:41.393Z,823.14
2023-02-16T05:23:41.416Z,823.18
2023-02-16T05:24:41.508Z,823.17
2023-02-16T05:25:41.418Z,823.16
2023-02-16T05:26:41.418Z,823.20
2023-02-16T05:27:41.427Z,823.18
2023-02-16T05:28:41.437Z,823.19
2023-02-16T05:29:41.453Z,823.20
2023-02-16T05:30:41.567Z,823.21
2023-02-16T05:31:41.607Z,823.23
2023-02-16T05:32:41.495Z,823.22
2023-02-16T05:33:41.474Z,823.19
2023-02-16T05:34:41.479Z,823.18
2023-02-16T05:35:41.486Z,823.19
2023-02-16T05:36:41.494Z,823.20
2023-02-16T05:37:42.775Z,823.18
2023-02-16T05:38:41.506Z,823.21
2023-02-16T05:39:41.549Z,823.17
2023-02-16T05:40:41.519Z,823.17
2023-02-16T05:41:41.531Z,823.16
2023-02-16T05:42:41.533Z,823.16
2023-02-16T05:43:41.547Z,823.17
2023-02-16T05:44:41.552Z,823.14
2023-02-16T05:45:41.566Z,823.15
2023-02-16T05:46:41.672Z,823.16
2023-02-16T05:47:41.586Z,823.14
2023-02-16T05:48:41.582Z,823.16
2023-02-16T05:49:41.594Z,823.21
2023-02-16T05:50:41.594Z,823.17
2023-02-16T05:51:41.618Z,823.17
2023-02-16T05:52:41.605Z,823.18
2023-02-16T05:53:41.620Z,823.14
2023-02-16T05:54:41.619Z,823.15
2023-02-16T05:55:41.656Z,823.17
2023-02-16T05:56:41.636Z,823.17
2023-02-16T05:57:41.653Z,823.14
2023-02-16T05:58:41.653Z,823.15
2023-02-16T05:59:41.671Z,823.11
2023-02-16T06:00:41.684Z,823.14
2023-02-16T06:01:41.674Z,823.10
2023-02-16T06:02:41.729Z,823.17
2023-02-16T06:03:41.752Z,823.12
2023-02-16T06:04:41.691Z,823.13
2023-02-16T06:05:41.705Z,823.12
2023-02-16T06:06:41.708Z,823.16
2023-02-16T06:07:41.717Z,823.14
2023-02-16T06:08:41.727Z,823.17
2023-02-16T06:09:41.756Z,823.20
2023-02-16T06:10:41.736Z,823.14
2023-02-16T06:11:41.770Z,823.16
2023-02-16T06:12:43.272Z,823.15
2023-02-16T06:13:41.757Z,823.15
2023-02-16T06:14:41.761Z,823.16
2023-02-16T06:15:41.823Z,823.16
2023-02-16T06:16:41.774Z,823.17
2023-02-16T06:17:41.786Z,823.21
2023-02-16T06:18:43.969Z,823.21
2023-02-16T06:19:41.802Z,823.23
2023-02-16T06:20:41.811Z,823.18
2023-02-16T06:21:41.822Z,823.23
2023-02-16T06:22:41.828Z,823.23
2023-02-16T06:23:41.831Z,823.23
2023-02-16T06:24:41.835Z,823.23
2023-02-16T06:25:41.843Z,823.26
2023-02-16T06:26:41.847Z,823.26
2023-02-16T06:27:41.877Z,823.29
2023-02-16T06:28:41.861Z,823.27
2023-02-16T06:29:41.888Z,823.29
2023-02-16T06:30:41.871Z,823.30
2023-02-16T06:31:41.965Z,823.28
2023-02-16T06:32:41.887Z,823.32
2023-02-16T06:33:41.894Z,823.29
2023-02-16T06:34:41.905Z,823.28
2023-02-16T06:35:41.930Z,823.27
2023-02-16T06:36:42.741Z,823.29
2023-02-16T06:37:41.927Z,823.27
2023-02-16T06:38:41.929Z,823.27
2023-02-16T06:39:41.936Z,823.27
2023-02-16T06:40:41.940Z,823.30
2023-02-16T06:41:41.962Z,823.32
2023-02-16T06:42:41.954Z,823.28
2023-02-16T06:43:41.981Z,823.26
2023-02-16T06:44:41.967Z,823.25
2023-02-16T06:45:41.977Z,823.27
2023-02-16T06:46:42.230Z,823.28
2023-02-16T06:47:41.995Z,823.30
2023-02-16T06:48:42.000Z,823.28
2023-02-16T06:49:42.017Z,823.28
2023-02-16T06:50:42.055Z,823.26
2023-02-16T06:51:42.022Z,823.26
2023-02-16T06:52:42.036Z,823.26
2023-02-16T06:53:42.038Z,823.24
2023-02-16T06:54:42.050Z,823.26
2023-02-16T06:55:42.051Z,823.27
2023-02-16T06:56:42.056Z,823.30
2023-02-16T06:57:42.063Z,823.30
2023-02-16T06:58:42.070Z,823.31
2023-02-16T06:59:42.262Z,823.31
2023-02-16T07:00:42.123Z,823.37
2023-02-16T07:01:44.215Z,823.38
2023-02-16T07:02:42.095Z,823.35
2023-02-16T07:03:42.444Z,823.38
2023-02-16T07:04:42.111Z,823.37
2023-02-16T07:05:42.125Z,823.39
2023-02-16T07:06:42.143Z,823.37
2023-02-16T07:07:42.130Z,823.35
2023-02-16T07:08:42.132Z,823.34
2023-02-16T07:09:42.146Z,823.40
2023-02-16T07:10:49.873Z,823.42
2023-02-16T07:11:42.206Z,823.41
2023-02-16T07:12:42.161Z,823.43
2023-02-16T07:13:42.175Z,823.43
2023-02-16T07:14:44.111Z,823.42
2023-02-16T07:15:42.205Z,823.45
2023-02-16T07:16:42.188Z,823.44
2023-02-16T07:17:42.216Z,823.45
2023-02-16T07:18:42.204Z,823.43
2023-02-16T07:19:42.214Z,823.42
2023-02-16T07:20:42.217Z,823.40
2023-02-16T07:21:42.226Z,823.41
2023-02-16T07:22:42.230Z,823.42
2023-02-16T07:23:42.249Z,823.39
2023-02-16T07:24:42.248Z,823.41
2023-02-16T07:25:42.274Z,823.43
2023-02-16T07:26:42.255Z,823.47
2023-02-16T07:27:42.275Z,823.45
2023-02-16T07:28:42.277Z,823.46
2023-02-16T07:29:42.284Z,823.46
2023-02-16T07:30:42.292Z,823.48
2023-02-16T07:31:42.478Z,823.45
2023-02-16T07:32:42.300Z,823.46
2023-02-16T07:33:42.336Z,823.47
2023-02-16T07:34:42.318Z,823.48
2023-02-16T07:35:42.328Z,823.50
2023-02-16T07:36:42.334Z,823.49
2023-02-16T07:37:42.339Z,823.45
2023-02-16T07:38:42.340Z,823.44
2023-02-16T07:39:42.354Z,823.43
2023-02-16T07:40:42.374Z,823.45
2023-02-16T07:41:42.367Z,823.41
2023-02-16T07:42:42.369Z,823.44
2023-02-16T07:43:42.380Z,823.46
2023-02-16T07:44:42.389Z,823.42
2023-02-16T07:45:42.467Z,823.49
2023-02-16T07:46:42.396Z,823.45
2023-02-16T07:47:42.428Z,823.51
2023-02-16T07:48:42.425Z,823.47
2023-02-16T07:49:42.420Z,823.48
2023-02-16T07:50:42.428Z,823.49
2023-02-16T07:51:42.435Z,823.49
2023-02-16T07:52:42.443Z,823.50
2023-02-16T07:53:42.448Z,823.52
2023-02-16T07:54:42.453Z,823.53
2023-02-16T07:55:42.462Z,823.54
2023-02-16T07:56:42.466Z,823.56
2023-02-16T07:57:42.477Z,823.51
2023-02-16T07:58:42.479Z,823.53
2023-02-16T07:59:42.504Z,823.56
2023-02-16T08:00:42.494Z,823.57
2023-02-16T08:01:42.512Z,823.61
2023-02-16T08:02:42.604Z,823.62
2023-02-16T08:03:42.561Z,823.63
2023-02-16T08:04:42.528Z,823.62
2023-02-16T08:05:42.533Z,823.62
2023-02-16T08:06:42.536Z,823.64
2023-02-16T08:07:42.551Z,823.65
2023-02-16T08:08:42.550Z,823.61
2023-02-16T08:09:42.560Z,823.63
2023-02-16T08:10:42.569Z,823.60
2023-02-16T08:11:42.579Z,823.61
2023-02-16T08:12:42.583Z,823.59
2023-02-16T08:13:42.592Z,823.62
2023-02-16T08:14:42.599Z,823.61
2023-02-16T08:15:42.607Z,823.65
2023-02-16T08:16:42.689Z,823.63
2023-02-16T08:17:42.624Z,823.68
2023-02-16T08:18:42.655Z,823.66
2023-02-16T08:19:42.672Z,823.67
2023-02-16T08:21:01.474Z,823.67
2023-02-16T08:21:42.658Z,823.66
2023-02-16T08:22:42.659Z,823.64
2023-02-16T08:23:42.688Z,823.64
2023-02-16T08:24:42.671Z,823.60
2023-02-16T08:25:42.786Z,823.61
2023-02-16T08:26:42.687Z,823.61
2023-02-16T08:27:42.701Z,823.60
2023-02-16T08:28:42.722Z,823.62
2023-02-16T08:29:42.710Z,823.65
2023-02-16T08:30:42.720Z,823.65
2023-02-16T08:31:42.884Z,823.65
2023-02-16T08:32:42.731Z,823.64
2023-02-16T08:33:42.779Z,823.62
2023-02-16T08:34:43.478Z,823.63
2023-02-16T08:35:42.784Z,823.57
2023-02-16T08:36:42.765Z,823.65
2023-02-16T08:37:42.778Z,823.60
2023-02-16T08:38:42.779Z,823.62
2023-02-16T08:39:42.796Z,823.63
2023-02-16T08:40:42.801Z,823.63
2023-02-16T08:41:42.822Z,823.64
2023-02-16T08:42:42.823Z,823.63
2023-02-16T08:43:42.822Z,823.62
2023-02-16T08:44:42.883Z,823.61
2023-02-16T08:45:42.877Z,823.65
2023-02-16T08:46:42.835Z,823.67
2023-02-16T08:47:42.846Z,823.69
2023-02-16T08:48:42.854Z,823.69
2023-02-16T08:49:42.859Z,823.68
2023-02-16T08:50:42.890Z,823.70
2023-02-16T08:51:42.919Z,823.67
2023-02-16T08:52:42.895Z,823.70
2023-02-16T08:53:42.894Z,823.70
2023-02-16T08:54:42.905Z,823.66
2023-02-16T08:55:42.902Z,823.70
2023-02-16T08:56:42.915Z,823.65
2023-02-16T08:57:42.920Z,823.68
2023-02-16T08:58:42.934Z,823.70
2023-02-16T08:59:42.947Z,823.67
2023-02-16T09:00:42.946Z,823.69
2023-02-16T09:01:42.950Z,823.71
2023-02-16T09:02:43.027Z,823.72
2023-02-16T09:03:42.973Z,823.74
2023-02-16T09:04:42.976Z,823.73
2023-02-16T09:05:42.983Z,823.74
2023-02-16T09:06:42.990Z,823.75
2023-02-16T09:07:43.032Z,823.72
2023-02-16T09:08:43.007Z,823.77
2023-02-16T09:09:43.024Z,823.75
2023-02-16T09:10:43.026Z,823.76
2023-02-16T09:11:43.037Z,823.77
2023-02-16T09:12:43.039Z,823.74
2023-02-16T09:13:43.053Z,823.72
2023-02-16T09:14:43.055Z,823.78
2023-02-16T09:15:43.079Z,823.76
2023-02-16T09:16:43.112Z,823.80
2023-02-16T09:17:43.085Z,823.81
2023-02-16T09:18:43.087Z,823.79
2023-02-16T09:19:43.097Z,823.76
2023-02-16T09:20:46.321Z,823.80
2023-02-16T09:21:43.134Z,823.80
2023-02-16T09:22:43.127Z,823.80
2023-02-16T09:23:44.700Z,823.82
2023-02-16T09:24:43.142Z,823.83
2023-02-16T09:25:43.143Z,823.83
2023-02-16T09:26:43.264Z,823.79
2023-02-16T09:27:43.170Z,823.84
2023-02-16T09:28:43.174Z,823.85
2023-02-16T09:29:43.181Z,823.83
2023-02-16T09:30:43.207Z,823.86
2023-02-16T09:31:43.277Z,823.89
2023-02-16T09:32:43.206Z,823.84
2023-02-16T09:33:43.220Z,823.87
2023-02-16T09:34:43.224Z,823.87
2023-02-16T09:35:43.234Z,823.89
2023-02-16T09:36:43.244Z,823.87
2023-02-16T09:37:43.247Z,823.89
2023-02-16T09:38:43.256Z,823.87
2023-02-16T09:39:43.302Z,823.84
2023-02-16T09:40:43.282Z,823.83
2023-02-16T09:41:43.283Z,823.88
2023-02-16T09:42:43.291Z,823.88
2023-02-16T09:43:43.299Z,823.85
2023-02-16T09:44:43.312Z,823.85
2023-02-16T09:45:43.341Z,823.87
2023-02-16T09:46:43.329Z,823.91
2023-02-16T09:47:43.335Z,823.92
2023-02-16T09:48:43.348Z,823.93
2023-02-16T09:49:43.354Z,823.98
2023-02-16T09:50:53.667Z,823.98
2023-02-16T09:51:43.379Z,823.89
2023-02-16T09:52:43.382Z,823.96
2023-02-16T09:53:43.395Z,823.95
2023-02-16T09:54:43.425Z,823.95
2023-02-16T09:55:43.432Z,823.94
2023-02-16T09:56:43.518Z,823.97
2023-02-16T09:57:43.436Z,823.95
2023-02-16T09:58:43.440Z,824.00
2023-02-16T09:59:43.541Z,823.97
2023-02-16T10:00:43.452Z,823.98
2023-02-16T10:01:43.489Z,824.00
2023-02-16T10:02:43.518Z,823.98
2023-02-16T10:03:43.482Z,823.99
2023-02-16T10:04:45.214Z,824.00
2023-02-16T10:05:43.497Z,823.93
2023-02-16T10:06:43.513Z,824.02
2023-02-16T10:07:43.519Z,823.98
2023-02-16T10:08:43.529Z,823.96
2023-02-16T10:09:43.538Z,823.95
2023-02-16T10:10:43.548Z,823.98
2023-02-16T10:11:43.577Z,824.00
2023-02-16T10:12:43.570Z,824.01
2023-02-16T10:13:43.578Z,824.00
2023-02-16T10:14:43.592Z,824.01
2023-02-16T10:15:43.624Z,824.00
2023-02-16T10:16:43.611Z,823.95
2023-02-16T10:17:43.616Z,824.00
2023-02-16T10:18:43.642Z,824.02
2023-02-16T10:19:43.635Z,824.01
2023-02-16T10:20:43.653Z,824.03
2023-02-16T10:21:43.653Z,824.05
2023-02-16T10:22:43.669Z,824.00
2023-02-16T10:23:43.689Z,824.04
2023-02-16T10:24:43.701Z,824.05
2023-02-16T10:25:43.722Z,824.01
2023-02-16T10:26:43.710Z,824.01
2023-02-16T10:27:43.753Z,824.00
2023-02-16T10:28:43.729Z,824.07
2023-02-16T10:29:43.740Z,824.04
2023-02-16T10:30:43.783Z,824.08
2023-02-16T10:31:43.975Z,824.08
2023-02-16T10:32:44.253Z,824.09
2023-02-16T10:33:43.779Z,824.06
2023-02-16T10:34:43.799Z,824.01
2023-02-16T10:35:43.811Z,824.03
2023-02-16T10:36:43.821Z,824.10
2023-02-16T10:37:43.828Z,824.11
2023-02-16T10:38:43.850Z,824.08
2023-02-16T10:39:43.844Z,824.11
2023-02-16T10:40:43.861Z,824.10
2023-02-16T10:41:43.874Z,824.08
2023-02-16T10:42:43.929Z,824.07
2023-02-16T10:43:43.961Z,824.10
2023-02-16T10:44:43.902Z,824.08
2023-02-16T10:45:45.282Z,824.11
2023-02-16T10:46:43.986Z,824.09
2023-02-16T10:47:43.936Z,824.14
2023-02-16T10:48:43.965Z,824.11
2023-02-16T10:49:43.956Z,824.09
2023-02-16T10:50:43.969Z,824.10
2023-02-16T10:51:43.975Z,824.14
2023-02-16T10:52:43.989Z,824.12
2023-02-16T10:53:43.998Z,824.10
2023-02-16T10:54:44.013Z,824.15
2023-02-16T10:55:44.042Z,824.15
2023-02-16T10:56:44.037Z,824.17
2023-02-16T10:57:44.039Z,824.06
2023-02-16T10:58:44.059Z,824.06
2023-02-16T10:59:44.186Z,824.07
2023-02-16T11:00:44.080Z,824.14
2023-02-16T11:01:44.160Z,824.13
2023-02-16T11:02:44.101Z,824.18
2023-02-16T11:03:44.110Z,824.13
2023-02-16T11:04:44.165Z,824.15
2023-02-16T11:05:44.146Z,824.11
2023-02-16T11:06:44.148Z,824.14
2023-02-16T11:07:44.182Z,824.11
2023-02-16T11:08:44.172Z,824.10
2023-02-16T11:09:44.177Z,824.11
2023-02-16T11:10:44.205Z,824.08
2023-02-16T11:11:44.199Z,824.10
2023-02-16T11:12:44.227Z,824.11
2023-02-16T11:13:44.225Z,824.09
2023-02-16T11:14:44.235Z,824.08
2023-02-16T11:15:44.298Z,824.13
2023-02-16T11:16:44.258Z,824.14
2023-02-16T11:17:44.276Z,824.14
2023-02-16T11:18:44.279Z,824.09
2023-02-16T11:19:44.289Z,824.15
2023-02-16T11:20:44.304Z,824.12
2023-02-16T11:21:44.311Z,824.11
2023-02-16T11:22:44.570Z,824.10
2023-02-16T11:23:44.352Z,824.08
2023-02-16T11:24:44.355Z,824.08
2023-02-16T11:25:44.357Z,824.04
2023-02-16T11:26:44.374Z,824.07
2023-02-16T11:27:44.383Z,824.03
2023-02-16T11:28:44.395Z,824.06
2023-02-16T11:29:44.408Z,824.05
2023-02-16T11:30:44.445Z,824.06
2023-02-16T11:31:44.591Z,824.01
2023-02-16T11:32:44.442Z,824.03
2023-02-16T11:33:44.456Z,824.03
2023-02-16T11:34:44.479Z,823.96
2023-02-16T11:35:44.477Z,824.01
2023-02-16T11:36:44.501Z,823.99
2023-02-16T11:37:44.500Z,823.98
2023-02-16T11:38:44.513Z,823.99
2023-02-16T11:39:44.524Z,823.97
2023-02-16T11:40:44.538Z,823.95
2023-02-16T11:41:44.543Z,823.98
2023-02-16T11:42:44.563Z,823.95
2023-02-16T11:43:44.569Z,823.92
2023-02-16T11:44:44.583Z,823.92
2023-02-16T11:45:44.589Z,823.93
2023-02-16T11:46:44.608Z,823.92
2023-02-16T11:47:44.637Z,823.90
2023-02-16T11:48:44.631Z,823.88
2023-02-16T11:49:44.636Z,823.86
2023-02-16T11:50:44.652Z,823.86
2023-02-16T11:51:44.662Z,823.80
2023-02-16T11:52:44.677Z,823.86
2023-02-16T11:53:44.691Z,823.82
2023-02-16T11:54:44.700Z,823.82
2023-02-16T11:55:44.709Z,823.83
2023-02-16T11:56:44.725Z,823.83
2023-02-16T11:57:44.752Z,823.83
2023-02-16T11:58:44.751Z,823.81
2023-02-16T11:59:44.764Z,823.75
2023-02-16T12:00:44.779Z,823.78
2023-02-16T12:01:44.784Z,823.77
2023-02-16T12:02:44.805Z,823.80
2023-02-16T12:03:44.901Z,823.79
2023-02-16T12:04:44.830Z,823.78
2023-02-16T12:05:44.937Z,823.82
2023-02-16T12:06:44.850Z,823.81
2023-02-16T12:07:44.865Z,823.74
2023-02-16T12:08:44.939Z,823.72
2023-02-16T12:09:44.897Z,823.72
2023-02-16T12:10:44.903Z,823.72
2023-02-16T12:11:44.926Z,823.74
2023-02-16T12:12:44.934Z,823.80
2023-02-16T12:13:44.940Z,823.75
2023-02-16T12:14:44.990Z,823.70
2023-02-16T12:15:44.961Z,823.68
2023-02-16T12:16:45.085Z,823.70
2023-02-16T12:17:44.987Z,823.66
2023-02-16T12:18:45.005Z,823.67
2023-02-16T12:19:45.038Z,823.68
2023-02-16T12:20:45.032Z,823.66
2023-02-16T12:21:45.039Z,823.66
2023-02-16T12:22:45.158Z,823.65
2023-02-16T12:23:45.065Z,823.61
2023-02-16T12:24:45.086Z,823.66
2023-02-16T12:25:45.097Z,823.67
2023-02-16T12:26:45.119Z,823.68
2023-02-16T12:27:45.127Z,823.65
2023-02-16T12:28:45.163Z,823.70